sensor_id;sensor_type;location;lat;lon;timestamp;temperature;humidity
51982;DHT22;37998;53.416;6.730;2022-08-26T00:01:06;23.00;99.90
51982;DHT22;37998;53.416;6.730;2022-08-26T00:03:31;23.00;99.90
51982;DHT22;37998;53.416;6.730;2022-08-26T00:05:58;22.90;99.90
51982;DHT22;37998;53.416;6.730;2022-08-26T00:08:24;22.90;99.90
51982;DHT22;37998;53.416;6.730;2022-08-26T00:10:50;22.90;99.90
51982;DHT22;37998;53.416;6.730;2022-08-26T00:13:16;22.80;99.90
51982;DHT22;37998;53.416;6.730;2022-08-26T00:15:43;22.80;99.90
51982;DHT22;37998;53.416;6.730;2022-08-26T00:18:09;22.80;99.90
51982;DHT22;37998;53.416;6.730;2022-08-26T00:20:34;22.70;99.90
51982;DHT22;37998;53.416;6.730;2022-08-26T00:23:01;22.70;99.90
51982;DHT22;37998;53.416;6.730;2022-08-26T00:25:27;22.60;99.90
51982;DHT22;37998;53.416;6.730;2022-08-26T00:27:53;22.70;99.90
51982;DHT22;37998;53.416;6.730;2022-08-26T00:30:22;22.60;99.90
51982;DHT22;37998;53.416;6.730;2022-08-26T00:32:48;22.60;99.90
51982;DHT22;37998;53.416;6.730;2022-08-26T00:35:14;22.60;99.90
51982;DHT22;37998;53.416;6.730;2022-08-26T00:37:41;22.60;99.90
51982;DHT22;37998;53.416;6.730;2022-08-26T00:40:10;22.50;99.90
51982;DHT22;37998;53.416;6.730;2022-08-26T00:42:36;22.50;99.90
51982;DHT22;37998;53.416;6.730;2022-08-26T00:45:02;22.40;99.90
51982;DHT22;37998;53.416;6.730;2022-08-26T00:47:29;22.40;99.90
51982;DHT22;37998;53.416;6.730;2022-08-26T00:49:56;22.30;99.90
51982;DHT22;37998;53.416;6.730;2022-08-26T00:52:24;22.30;99.90
51982;DHT22;37998;53.416;6.730;2022-08-26T00:55:00;22.20;99.90
51982;DHT22;37998;53.416;6.730;2022-08-26T00:57:27;22.20;99.90
51982;DHT22;37998;53.416;6.730;2022-08-26T00:59:56;22.20;99.90
51982;DHT22;37998;53.416;6.730;2022-08-26T01:02:23;22.10;99.90
51982;DHT22;37998;53.416;6.730;2022-08-26T01:04:52;22.10;99.90
51982;DHT22;37998;53.416;6.730;2022-08-26T01:07:19;22.10;99.90
51982;DHT22;37998;53.416;6.730;2022-08-26T01:09:46;22.10;99.90
51982;DHT22;37998;53.416;6.730;2022-08-26T01:12:12;22.10;99.90
51982;DHT22;37998;53.416;6.730;2022-08-26T01:14:38;22.10;99.90
51982;DHT22;37998;53.416;6.730;2022-08-26T01:17:06;22.10;99.90
51982;DHT22;37998;53.416;6.730;2022-08-26T01:19:51;22.00;99.90
51982;DHT22;37998;53.416;6.730;2022-08-26T01:22:21;22.10;99.90
51982;DHT22;37998;53.416;6.730;2022-08-26T01:24:48;22.00;99.90
51982;DHT22;37998;53.416;6.730;2022-08-26T01:27:17;21.90;99.90
51982;DHT22;37998;53.416;6.730;2022-08-26T01:29:44;21.90;99.90
51982;DHT22;37998;53.416;6.730;2022-08-26T01:32:14;21.80;99.90
51982;DHT22;37998;53.416;6.730;2022-08-26T01:34:42;21.80;99.90
51982;DHT22;37998;53.416;6.730;2022-08-26T01:37:17;21.80;99.90
51982;DHT22;37998;53.416;6.730;2022-08-26T01:39:48;21.70;99.90
51982;DHT22;37998;53.416;6.730;2022-08-26T01:42:15;21.70;99.90
51982;DHT22;37998;53.416;6.730;2022-08-26T01:44:46;21.70;99.90
51982;DHT22;37998;53.416;6.730;2022-08-26T01:47:13;21.70;99.90
51982;DHT22;37998;53.416;6.730;2022-08-26T01:49:42;21.70;99.90
51982;DHT22;37998;53.416;6.730;2022-08-26T01:52:11;21.70;99.90
51982;DHT22;37998;53.416;6.730;2022-08-26T01:54:40;21.60;99.90
51982;DHT22;37998;53.416;6.730;2022-08-26T01:57:07;21.60;99.90
51982;DHT22;37998;53.416;6.730;2022-08-26T01:59:33;21.60;99.90
51982;DHT22;37998;53.416;6.730;2022-08-26T02:01:59;21.60;99.90
51982;DHT22;37998;53.416;6.730;2022-08-26T02:04:37;21.60;99.90
51982;DHT22;37998;53.416;6.730;2022-08-26T02:07:07;21.60;99.90
51982;DHT22;37998;53.416;6.730;2022-08-26T02:09:36;21.60;99.90
51982;DHT22;37998;53.416;6.730;2022-08-26T02:12:03;21.60;99.90
51982;DHT22;37998;53.416;6.730;2022-08-26T02:14:33;21.70;99.90
51982;DHT22;37998;53.416;6.730;2022-08-26T02:17:02;21.70;99.90
51982;DHT22;37998;53.416;6.730;2022-08-26T02:19:33;21.70;99.90
51982;DHT22;37998;53.416;6.730;2022-08-26T02:22:03;21.70;99.90
51982;DHT22;37998;53.416;6.730;2022-08-26T02:24:47;21.70;99.90
51982;DHT22;37998;53.416;6.730;2022-08-26T02:27:15;21.80;99.90
51982;DHT22;37998;53.416;6.730;2022-08-26T02:29:44;21.70;99.90
51982;DHT22;37998;53.416;6.730;2022-08-26T02:32:10;21.70;99.90
51982;DHT22;37998;53.416;6.730;2022-08-26T02:34:36;21.70;99.90
51982;DHT22;37998;53.416;6.730;2022-08-26T02:37:05;21.70;99.90
51982;DHT22;37998;53.416;6.730;2022-08-26T02:39:34;21.70;99.90
51982;DHT22;37998;53.416;6.730;2022-08-26T02:42:01;21.70;99.90
51982;DHT22;37998;53.416;6.730;2022-08-26T02:44:27;21.70;99.90
51982;DHT22;37998;53.416;6.730;2022-08-26T02:46:53;21.70;99.90
51982;DHT22;37998;53.416;6.730;2022-08-26T02:49:21;21.70;99.90
51982;DHT22;37998;53.416;6.730;2022-08-26T02:51:48;21.70;99.90
51982;DHT22;37998;53.416;6.730;2022-08-26T02:54:15;21.60;99.90
51982;DHT22;37998;53.416;6.730;2022-08-26T02:56:41;21.70;99.90
51982;DHT22;37998;53.416;6.730;2022-08-26T02:59:07;21.50;99.90
51982;DHT22;37998;53.416;6.730;2022-08-26T03:01:34;21.50;99.90
51982;DHT22;37998;53.416;6.730;2022-08-26T03:04:03;21.60;99.90
51982;DHT22;37998;53.416;6.730;2022-08-26T03:06:29;21.50;99.90
51982;DHT22;37998;53.416;6.730;2022-08-26T03:08:55;21.50;99.90
51982;DHT22;37998;53.416;6.730;2022-08-26T03:11:21;21.50;99.90
51982;DHT22;37998;53.416;6.730;2022-08-26T03:13:48;21.50;99.90
51982;DHT22;37998;53.416;6.730;2022-08-26T03:16:15;21.40;99.90
51982;DHT22;37998;53.416;6.730;2022-08-26T03:18:41;21.40;99.90
51982;DHT22;37998;53.416;6.730;2022-08-26T03:21:15;21.40;99.90
51982;DHT22;37998;53.416;6.730;2022-08-26T03:23:43;21.40;99.90
51982;DHT22;37998;53.416;6.730;2022-08-26T03:26:10;21.40;99.90
51982;DHT22;37998;53.416;6.730;2022-08-26T03:28:37;21.40;99.90
51982;DHT22;37998;53.416;6.730;2022-08-26T03:31:23;21.30;99.90
51982;DHT22;37998;53.416;6.730;2022-08-26T03:33:51;21.30;99.90
51982;DHT22;37998;53.416;6.730;2022-08-26T03:36:17;21.30;99.90
51982;DHT22;37998;53.416;6.730;2022-08-26T03:38:42;21.30;99.90
51982;DHT22;37998;53.416;6.730;2022-08-26T03:41:08;21.30;99.90
51982;DHT22;37998;53.416;6.730;2022-08-26T03:43:35;21.20;99.90
51982;DHT22;37998;53.416;6.730;2022-08-26T03:46:09;21.20;99.90
51982;DHT22;37998;53.416;6.730;2022-08-26T03:48:35;21.20;99.90
51982;DHT22;37998;53.416;6.730;2022-08-26T03:51:02;21.20;99.90
51982;DHT22;37998;53.416;6.730;2022-08-26T03:53:28;21.20;99.90
51982;DHT22;37998;53.416;6.730;2022-08-26T03:55:54;21.20;99.90
51982;DHT22;37998;53.416;6.730;2022-08-26T03:58:20;21.30;99.90
51982;DHT22;37998;53.416;6.730;2022-08-26T04:00:48;21.30;99.90
51982;DHT22;37998;53.416;6.730;2022-08-26T04:03:16;21.30;99.90
51982;DHT22;37998;53.416;6.730;2022-08-26T04:06:02;21.30;99.90
51982;DHT22;37998;53.416;6.730;2022-08-26T04:08:28;21.30;99.90
51982;DHT22;37998;53.416;6.730;2022-08-26T04:10:54;21.30;99.90
51982;DHT22;37998;53.416;6.730;2022-08-26T04:13:19;21.30;99.90
51982;DHT22;37998;53.416;6.730;2022-08-26T04:15:45;21.30;99.90
51982;DHT22;37998;53.416;6.730;2022-08-26T04:18:11;21.40;99.90
51982;DHT22;37998;53.416;6.730;2022-08-26T04:20:36;21.20;99.90
51982;DHT22;37998;53.416;6.730;2022-08-26T04:23:02;21.30;99.90
51982;DHT22;37998;53.416;6.730;2022-08-26T04:25:28;21.20;99.90
51982;DHT22;37998;53.416;6.730;2022-08-26T04:27:54;21.20;99.90
51982;DHT22;37998;53.416;6.730;2022-08-26T04:30:20;21.30;99.90
51982;DHT22;37998;53.416;6.730;2022-08-26T04:32:46;21.20;99.90
51982;DHT22;37998;53.416;6.730;2022-08-26T04:35:11;21.20;99.90
51982;DHT22;37998;53.416;6.730;2022-08-26T04:37:37;21.20;99.90
51982;DHT22;37998;53.416;6.730;2022-08-26T04:40:03;21.20;99.90
51982;DHT22;37998;53.416;6.730;2022-08-26T04:42:31;21.10;99.90
51982;DHT22;37998;53.416;6.730;2022-08-26T04:44:57;21.10;99.90
51982;DHT22;37998;53.416;6.730;2022-08-26T04:47:23;21.10;99.90
51982;DHT22;37998;53.416;6.730;2022-08-26T04:49:49;21.20;99.90
51982;DHT22;37998;53.416;6.730;2022-08-26T04:52:16;21.20;99.90
51982;DHT22;37998;53.416;6.730;2022-08-26T04:54:41;21.20;99.90
51982;DHT22;37998;53.416;6.730;2022-08-26T04:57:07;21.10;99.90
51982;DHT22;37998;53.416;6.730;2022-08-26T04:59:32;21.10;99.90
51982;DHT22;37998;53.416;6.730;2022-08-26T05:01:58;21.00;99.90
51982;DHT22;37998;53.416;6.730;2022-08-26T05:04:25;21.10;99.90
51982;DHT22;37998;53.416;6.730;2022-08-26T05:06:51;21.00;99.90
51982;DHT22;37998;53.416;6.730;2022-08-26T05:09:17;21.00;99.90
51982;DHT22;37998;53.416;6.730;2022-08-26T05:11:43;21.00;99.90
51982;DHT22;37998;53.416;6.730;2022-08-26T05:14:10;21.00;99.90
51982;DHT22;37998;53.416;6.730;2022-08-26T05:16:36;21.00;99.90
51982;DHT22;37998;53.416;6.730;2022-08-26T05:19:02;21.00;99.90
51982;DHT22;37998;53.416;6.730;2022-08-26T05:21:30;21.00;99.90
51982;DHT22;37998;53.416;6.730;2022-08-26T05:23:55;21.00;99.90
51982;DHT22;37998;53.416;6.730;2022-08-26T05:26:23;20.90;99.90
51982;DHT22;37998;53.416;6.730;2022-08-26T05:28:50;20.90;99.90
51982;DHT22;37998;53.416;6.730;2022-08-26T05:31:18;20.90;99.90
51982;DHT22;37998;53.416;6.730;2022-08-26T05:33:44;20.80;99.90
51982;DHT22;37998;53.416;6.730;2022-08-26T05:36:14;21.00;99.90
51982;DHT22;37998;53.416;6.730;2022-08-26T05:38:41;20.90;99.90
51982;DHT22;37998;53.416;6.730;2022-08-26T05:41:22;20.90;99.90
51982;DHT22;37998;53.416;6.730;2022-08-26T05:43:49;20.90;99.90
51982;DHT22;37998;53.416;6.730;2022-08-26T05:46:15;20.80;99.90
51982;DHT22;37998;53.416;6.730;2022-08-26T05:48:41;20.80;99.90
51982;DHT22;37998;53.416;6.730;2022-08-26T05:51:08;20.80;99.90
51982;DHT22;37998;53.416;6.730;2022-08-26T05:53:35;20.80;99.90
51982;DHT22;37998;53.416;6.730;2022-08-26T05:56:02;20.80;99.90
51982;DHT22;37998;53.416;6.730;2022-08-26T05:58:28;20.80;99.90
51982;DHT22;37998;53.416;6.730;2022-08-26T06:03:32;20.90;99.90
51982;DHT22;37998;53.416;6.730;2022-08-26T06:06:02;20.90;99.90
51982;DHT22;37998;53.416;6.730;2022-08-26T06:08:28;20.80;99.90
51982;DHT22;37998;53.416;6.730;2022-08-26T06:10:59;20.90;99.90
51982;DHT22;37998;53.416;6.730;2022-08-26T06:13:26;20.80;99.90
51982;DHT22;37998;53.416;6.730;2022-08-26T06:15:53;20.80;99.90
51982;DHT22;37998;53.416;6.730;2022-08-26T06:18:25;20.80;99.90
51982;DHT22;37998;53.416;6.730;2022-08-26T06:20:52;20.90;99.90
51982;DHT22;37998;53.416;6.730;2022-08-26T06:23:19;20.80;99.90
51982;DHT22;37998;53.416;6.730;2022-08-26T06:26:04;20.90;99.90
51982;DHT22;37998;53.416;6.730;2022-08-26T06:28:30;20.90;99.90
51982;DHT22;37998;53.416;6.730;2022-08-26T06:30:56;20.90;99.90
51982;DHT22;37998;53.416;6.730;2022-08-26T06:33:23;20.90;99.90
51982;DHT22;37998;53.416;6.730;2022-08-26T06:35:49;20.90;99.90
51982;DHT22;37998;53.416;6.730;2022-08-26T06:38:15;20.90;99.90
51982;DHT22;37998;53.416;6.730;2022-08-26T06:40:44;20.90;99.90
51982;DHT22;37998;53.416;6.730;2022-08-26T06:43:12;21.00;99.90
51982;DHT22;37998;53.416;6.730;2022-08-26T06:45:38;20.90;99.90
51982;DHT22;37998;53.416;6.730;2022-08-26T06:48:05;21.00;99.90
51982;DHT22;37998;53.416;6.730;2022-08-26T06:50:32;21.00;99.90
51982;DHT22;37998;53.416;6.730;2022-08-26T06:52:58;21.00;99.90
51982;DHT22;37998;53.416;6.730;2022-08-26T06:55:24;21.00;99.90
51982;DHT22;37998;53.416;6.730;2022-08-26T06:57:50;21.00;99.90
51982;DHT22;37998;53.416;6.730;2022-08-26T07:00:16;20.90;99.90
51982;DHT22;37998;53.416;6.730;2022-08-26T07:02:42;21.00;99.90
51982;DHT22;37998;53.416;6.730;2022-08-26T07:05:08;21.10;99.90
51982;DHT22;37998;53.416;6.730;2022-08-26T07:07:34;21.10;99.90
51982;DHT22;37998;53.416;6.730;2022-08-26T07:10:00;21.10;99.90
51982;DHT22;37998;53.416;6.730;2022-08-26T07:12:26;21.10;99.90
51982;DHT22;37998;53.416;6.730;2022-08-26T07:14:51;21.10;99.90
51982;DHT22;37998;53.416;6.730;2022-08-26T07:17:18;21.20;99.90
51982;DHT22;37998;53.416;6.730;2022-08-26T07:19:45;21.20;99.90
51982;DHT22;37998;53.416;6.730;2022-08-26T07:22:11;21.20;99.90
51982;DHT22;37998;53.416;6.730;2022-08-26T07:24:38;21.20;99.90
51982;DHT22;37998;53.416;6.730;2022-08-26T07:27:08;21.30;99.90
51982;DHT22;37998;53.416;6.730;2022-08-26T07:29:36;21.30;99.90
51982;DHT22;37998;53.416;6.730;2022-08-26T07:32:02;21.30;99.90
51982;DHT22;37998;53.416;6.730;2022-08-26T07:34:28;21.30;99.90
51982;DHT22;37998;53.416;6.730;2022-08-26T07:36:54;21.30;99.90
51982;DHT22;37998;53.416;6.730;2022-08-26T07:39:21;21.30;99.90
51982;DHT22;37998;53.416;6.730;2022-08-26T07:41:47;21.30;99.90
51982;DHT22;37998;53.416;6.730;2022-08-26T07:44:14;21.20;99.90
51982;DHT22;37998;53.416;6.730;2022-08-26T07:46:40;21.20;99.90
51982;DHT22;37998;53.416;6.730;2022-08-26T07:49:06;21.20;99.90
51982;DHT22;37998;53.416;6.730;2022-08-26T07:51:31;21.20;99.90
51982;DHT22;37998;53.416;6.730;2022-08-26T07:53:57;21.20;99.90
51982;DHT22;37998;53.416;6.730;2022-08-26T07:56:23;21.20;99.90
51982;DHT22;37998;53.416;6.730;2022-08-26T07:58:50;21.20;99.90
51982;DHT22;37998;53.416;6.730;2022-08-26T08:01:17;21.20;99.90
51982;DHT22;37998;53.416;6.730;2022-08-26T08:03:43;21.20;99.90
51982;DHT22;37998;53.416;6.730;2022-08-26T08:06:09;21.30;99.90
51982;DHT22;37998;53.416;6.730;2022-08-26T08:08:35;21.40;99.90
51982;DHT22;37998;53.416;6.730;2022-08-26T08:11:01;21.40;99.90
51982;DHT22;37998;53.416;6.730;2022-08-26T08:13:27;21.40;99.90
51982;DHT22;37998;53.416;6.730;2022-08-26T08:15:52;21.50;99.90
51982;DHT22;37998;53.416;6.730;2022-08-26T08:18:19;21.50;99.90
51982;DHT22;37998;53.416;6.730;2022-08-26T08:20:45;21.60;99.90
51982;DHT22;37998;53.416;6.730;2022-08-26T08:23:10;21.60;99.90
51982;DHT22;37998;53.416;6.730;2022-08-26T08:25:36;21.60;99.90
51982;DHT22;37998;53.416;6.730;2022-08-26T08:28:02;21.70;99.90
51982;DHT22;37998;53.416;6.730;2022-08-26T08:30:28;21.70;99.90
51982;DHT22;37998;53.416;6.730;2022-08-26T08:32:54;21.70;99.90
51982;DHT22;37998;53.416;6.730;2022-08-26T08:35:21;21.70;99.90
51982;DHT22;37998;53.416;6.730;2022-08-26T08:37:49;21.80;99.90
51982;DHT22;37998;53.416;6.730;2022-08-26T08:40:24;21.80;99.90
51982;DHT22;37998;53.416;6.730;2022-08-26T08:42:58;21.70;99.90
51982;DHT22;37998;53.416;6.730;2022-08-26T08:46:03;21.80;99.90
51982;DHT22;37998;53.416;6.730;2022-08-26T08:48:33;21.80;99.90
51982;DHT22;37998;53.416;6.730;2022-08-26T08:53:58;21.80;99.90
51982;DHT22;37998;53.416;6.730;2022-08-26T08:56:31;21.80;99.90
51982;DHT22;37998;53.416;6.730;2022-08-26T09:07:43;21.50;99.90
51982;DHT22;37998;53.416;6.730;2022-08-26T09:12:57;21.70;99.90
51982;DHT22;37998;53.416;6.730;2022-08-26T09:15:52;21.30;99.90
51982;DHT22;37998;53.416;6.730;2022-08-26T09:21:02;21.20;99.90
51982;DHT22;37998;53.416;6.730;2022-08-26T09:23:29;21.20;99.90
51982;DHT22;37998;53.416;6.730;2022-08-26T09:26:12;21.30;99.90
51982;DHT22;37998;53.416;6.730;2022-08-26T09:28:41;21.30;99.90
51982;DHT22;37998;53.416;6.730;2022-08-26T09:33:44;21.20;99.90
51982;DHT22;37998;53.416;6.730;2022-08-26T09:36:14;21.20;99.90
51982;DHT22;37998;53.416;6.730;2022-08-26T09:38:40;21.20;99.90
51982;DHT22;37998;53.416;6.730;2022-08-26T09:41:19;21.20;99.90
51982;DHT22;37998;53.416;6.730;2022-08-26T09:44:16;21.20;99.90
51982;DHT22;37998;53.416;6.730;2022-08-26T09:46:56;21.10;99.90
51982;DHT22;37998;53.416;6.730;2022-08-26T09:49:27;21.20;99.90
51982;DHT22;37998;53.416;6.730;2022-08-26T09:52:04;21.20;99.90
51982;DHT22;37998;53.416;6.730;2022-08-26T09:54:31;21.20;99.90
51982;DHT22;37998;53.416;6.730;2022-08-26T09:57:31;21.20;99.90
51982;DHT22;37998;53.416;6.730;2022-08-26T09:59:57;21.20;99.90
51982;DHT22;37998;53.416;6.730;2022-08-26T10:04:55;21.30;99.90
51982;DHT22;37998;53.416;6.730;2022-08-26T10:07:35;21.30;99.90
51982;DHT22;37998;53.416;6.730;2022-08-26T10:10:29;21.30;99.90
51982;DHT22;37998;53.416;6.730;2022-08-26T10:15:20;21.40;99.90
51982;DHT22;37998;53.416;6.730;2022-08-26T10:18:01;21.40;99.90
51982;DHT22;37998;53.416;6.730;2022-08-26T10:20:33;21.50;99.90
51982;DHT22;37998;53.416;6.730;2022-08-26T10:23:09;21.50;99.90
51982;DHT22;37998;53.416;6.730;2022-08-26T10:25:53;21.60;99.90
51982;DHT22;37998;53.416;6.730;2022-08-26T10:28:53;21.60;99.90
51982;DHT22;37998;53.416;6.730;2022-08-26T10:31:28;21.60;99.90
51982;DHT22;37998;53.416;6.730;2022-08-26T10:33:58;21.60;99.90
51982;DHT22;37998;53.416;6.730;2022-08-26T10:36:25;21.60;99.90
51982;DHT22;37998;53.416;6.730;2022-08-26T10:41:58;21.70;99.90
51982;DHT22;37998;53.416;6.730;2022-08-26T10:44:27;21.70;99.90
51982;DHT22;37998;53.416;6.730;2022-08-26T10:47:05;21.70;99.90
51982;DHT22;37998;53.416;6.730;2022-08-26T10:49:33;21.60;99.90
51982;DHT22;37998;53.416;6.730;2022-08-26T10:55:11;21.60;99.90
51982;DHT22;37998;53.416;6.730;2022-08-26T10:58:05;21.60;99.90
51982;DHT22;37998;53.416;6.730;2022-08-26T11:00:40;21.60;99.90
51982;DHT22;37998;53.416;6.730;2022-08-26T11:06:20;21.70;99.90
51982;DHT22;37998;53.416;6.730;2022-08-26T11:08:47;21.70;99.90
51982;DHT22;37998;53.416;6.730;2022-08-26T11:16:46;21.80;99.90
51982;DHT22;37998;53.416;6.730;2022-08-26T11:35:10;21.50;99.90
51982;DHT22;37998;53.416;6.730;2022-08-26T11:40:29;21.40;99.90
51982;DHT22;37998;53.416;6.730;2022-08-26T11:42:56;21.40;99.90
51982;DHT22;37998;53.416;6.730;2022-08-26T11:45:43;21.20;99.90
51982;DHT22;37998;53.416;6.730;2022-08-26T11:48:22;21.30;99.90
51982;DHT22;37998;53.416;6.730;2022-08-26T11:51:07;21.30;99.90
51982;DHT22;37998;53.416;6.730;2022-08-26T11:53:39;21.30;99.90
51982;DHT22;37998;53.416;6.730;2022-08-26T11:56:11;21.20;99.90
51982;DHT22;37998;53.416;6.730;2022-08-26T11:58:42;21.20;99.90
51982;DHT22;37998;53.416;6.730;2022-08-26T12:01:09;21.20;99.90
51982;DHT22;37998;53.416;6.730;2022-08-26T12:08:46;21.10;99.90
51982;DHT22;37998;53.416;6.730;2022-08-26T12:11:24;21.00;99.90
51982;DHT22;37998;53.416;6.730;2022-08-26T12:14:01;20.90;99.90
51982;DHT22;37998;53.416;6.730;2022-08-26T12:16:29;20.80;99.90
51982;DHT22;37998;53.416;6.730;2022-08-26T12:18:56;20.80;99.90
51982;DHT22;37998;53.416;6.730;2022-08-26T12:21:28;20.70;99.90
51982;DHT22;37998;53.416;6.730;2022-08-26T12:23:57;20.70;99.90
51982;DHT22;37998;53.416;6.730;2022-08-26T12:26:29;20.70;99.90
51982;DHT22;37998;53.416;6.730;2022-08-26T12:29:03;20.60;99.90
51982;DHT22;37998;53.416;6.730;2022-08-26T12:34:03;20.50;99.90
51982;DHT22;37998;53.416;6.730;2022-08-26T12:36:30;20.50;99.90
51982;DHT22;37998;53.416;6.730;2022-08-26T12:39:04;20.40;99.90
51982;DHT22;37998;53.416;6.730;2022-08-26T12:41:46;20.40;99.90
51982;DHT22;37998;53.416;6.730;2022-08-26T12:47:06;20.50;99.90
51982;DHT22;37998;53.416;6.730;2022-08-26T12:49:37;20.50;99.90
51982;DHT22;37998;53.416;6.730;2022-08-26T12:52:05;20.40;99.90
51982;DHT22;37998;53.416;6.730;2022-08-26T12:54:31;20.40;99.90
51982;DHT22;37998;53.416;6.730;2022-08-26T12:57:15;20.50;99.90
51982;DHT22;37998;53.416;6.730;2022-08-26T12:59:41;20.50;99.90
51982;DHT22;37998;53.416;6.730;2022-08-26T13:02:06;20.50;99.90
51982;DHT22;37998;53.416;6.730;2022-08-26T13:04:39;20.60;99.90
51982;DHT22;37998;53.416;6.730;2022-08-26T13:10:00;20.70;99.90
51982;DHT22;37998;53.416;6.730;2022-08-26T13:14:54;20.70;99.90
51982;DHT22;37998;53.416;6.730;2022-08-26T13:17:20;20.60;99.90
51982;DHT22;37998;53.416;6.730;2022-08-26T13:19:45;20.60;99.90
51982;DHT22;37998;53.416;6.730;2022-08-26T13:22:12;20.60;99.90
51982;DHT22;37998;53.416;6.730;2022-08-26T13:24:42;20.50;99.90
51982;DHT22;37998;53.416;6.730;2022-08-26T13:27:11;20.30;99.90
51982;DHT22;37998;53.416;6.730;2022-08-26T13:29:37;20.30;99.90
51982;DHT22;37998;53.416;6.730;2022-08-26T13:32:04;20.20;99.90
51982;DHT22;37998;53.416;6.730;2022-08-26T13:34:30;20.30;99.90
51982;DHT22;37998;53.416;6.730;2022-08-26T13:36:57;20.30;99.90
51982;DHT22;37998;53.416;6.730;2022-08-26T13:39:24;20.40;99.90
51982;DHT22;37998;53.416;6.730;2022-08-26T13:41:50;20.40;99.90
51982;DHT22;37998;53.416;6.730;2022-08-26T13:44:17;20.50;99.90
51982;DHT22;37998;53.416;6.730;2022-08-26T13:46:43;20.40;99.90
51982;DHT22;37998;53.416;6.730;2022-08-26T13:49:09;20.50;99.90
51982;DHT22;37998;53.416;6.730;2022-08-26T13:51:35;20.50;99.90
51982;DHT22;37998;53.416;6.730;2022-08-26T13:54:02;20.50;99.90
51982;DHT22;37998;53.416;6.730;2022-08-26T13:56:32;20.50;99.90
51982;DHT22;37998;53.416;6.730;2022-08-26T13:58:58;20.40;99.90
51982;DHT22;37998;53.416;6.730;2022-08-26T14:01:26;20.40;99.90
51982;DHT22;37998;53.416;6.730;2022-08-26T14:03:52;20.30;99.90
51982;DHT22;37998;53.416;6.730;2022-08-26T14:06:18;20.30;99.90
51982;DHT22;37998;53.416;6.730;2022-08-26T14:08:44;20.30;99.90
51982;DHT22;37998;53.416;6.730;2022-08-26T14:11:10;20.30;99.90
51982;DHT22;37998;53.416;6.730;2022-08-26T14:13:36;20.30;99.90
51982;DHT22;37998;53.416;6.730;2022-08-26T14:16:07;20.30;99.90
51982;DHT22;37998;53.416;6.730;2022-08-26T14:18:35;20.30;99.90
51982;DHT22;37998;53.416;6.730;2022-08-26T14:21:05;20.30;99.90
51982;DHT22;37998;53.416;6.730;2022-08-26T14:23:31;20.20;99.90
51982;DHT22;37998;53.416;6.730;2022-08-26T14:25:56;20.20;99.90
51982;DHT22;37998;53.416;6.730;2022-08-26T14:28:22;20.20;99.90
51982;DHT22;37998;53.416;6.730;2022-08-26T14:30:54;20.10;99.90
51982;DHT22;37998;53.416;6.730;2022-08-26T14:33:24;20.10;99.90
51982;DHT22;37998;53.416;6.730;2022-08-26T14:35:50;20.10;99.90
51982;DHT22;37998;53.416;6.730;2022-08-26T14:38:16;20.10;99.90
51982;DHT22;37998;53.416;6.730;2022-08-26T14:40:42;20.10;99.90
51982;DHT22;37998;53.416;6.730;2022-08-26T14:43:12;20.10;99.90
51982;DHT22;37998;53.416;6.730;2022-08-26T14:45:43;20.00;99.90
51982;DHT22;37998;53.416;6.730;2022-08-26T14:48:09;20.10;99.90
51982;DHT22;37998;53.416;6.730;2022-08-26T14:50:35;20.10;99.90
51982;DHT22;37998;53.416;6.730;2022-08-26T14:53:01;20.10;99.90
51982;DHT22;37998;53.416;6.730;2022-08-26T14:55:45;20.10;99.90
51982;DHT22;37998;53.416;6.730;2022-08-26T14:58:11;20.10;99.90
51982;DHT22;37998;53.416;6.730;2022-08-26T15:00:37;20.10;99.90
51982;DHT22;37998;53.416;6.730;2022-08-26T15:03:03;20.00;99.90
51982;DHT22;37998;53.416;6.730;2022-08-26T15:05:30;20.00;99.90
51982;DHT22;37998;53.416;6.730;2022-08-26T15:07:55;20.00;99.90
51982;DHT22;37998;53.416;6.730;2022-08-26T15:10:21;20.10;99.90
51982;DHT22;37998;53.416;6.730;2022-08-26T15:12:47;20.10;99.90
51982;DHT22;37998;53.416;6.730;2022-08-26T15:15:14;20.00;99.90
51982;DHT22;37998;53.416;6.730;2022-08-26T15:17:41;20.00;99.90
51982;DHT22;37998;53.416;6.730;2022-08-26T15:20:08;20.00;99.90
51982;DHT22;37998;53.416;6.730;2022-08-26T15:22:35;20.00;99.90
51982;DHT22;37998;53.416;6.730;2022-08-26T15:25:01;20.00;99.90
51982;DHT22;37998;53.416;6.730;2022-08-26T15:27:27;20.00;99.90
51982;DHT22;37998;53.416;6.730;2022-08-26T15:29:53;20.10;99.90
51982;DHT22;37998;53.416;6.730;2022-08-26T15:32:18;20.10;99.90
51982;DHT22;37998;53.416;6.730;2022-08-26T15:34:45;20.20;99.90
51982;DHT22;37998;53.416;6.730;2022-08-26T15:37:11;20.20;99.90
51982;DHT22;37998;53.416;6.730;2022-08-26T15:39:36;20.20;99.90
51982;DHT22;37998;53.416;6.730;2022-08-26T15:42:02;20.20;99.90
51982;DHT22;37998;53.416;6.730;2022-08-26T15:44:28;20.20;99.90
51982;DHT22;37998;53.416;6.730;2022-08-26T15:46:54;20.10;99.90
51982;DHT22;37998;53.416;6.730;2022-08-26T15:49:21;20.10;99.90
51982;DHT22;37998;53.416;6.730;2022-08-26T15:51:48;20.00;99.90
51982;DHT22;37998;53.416;6.730;2022-08-26T15:54:19;19.90;99.90
51982;DHT22;37998;53.416;6.730;2022-08-26T15:56:45;19.90;99.90
51982;DHT22;37998;53.416;6.730;2022-08-26T15:59:13;19.90;99.90
51982;DHT22;37998;53.416;6.730;2022-08-26T16:01:39;19.90;99.90
51982;DHT22;37998;53.416;6.730;2022-08-26T16:04:05;20.00;99.90
51982;DHT22;37998;53.416;6.730;2022-08-26T16:06:32;19.90;99.90
51982;DHT22;37998;53.416;6.730;2022-08-26T16:08:58;19.90;99.90
51982;DHT22;37998;53.416;6.730;2022-08-26T16:11:25;19.90;99.90
51982;DHT22;37998;53.416;6.730;2022-08-26T16:13:51;19.90;99.90
51982;DHT22;37998;53.416;6.730;2022-08-26T16:16:17;19.80;99.90
51982;DHT22;37998;53.416;6.730;2022-08-26T16:18:43;19.90;99.90
51982;DHT22;37998;53.416;6.730;2022-08-26T16:21:15;19.90;99.90
51982;DHT22;37998;53.416;6.730;2022-08-26T16:23:41;19.90;99.90
51982;DHT22;37998;53.416;6.730;2022-08-26T16:26:15;19.90;99.90
51982;DHT22;37998;53.416;6.730;2022-08-26T16:28:41;19.80;99.90
51982;DHT22;37998;53.416;6.730;2022-08-26T16:31:07;19.70;99.90
51982;DHT22;37998;53.416;6.730;2022-08-26T16:33:35;19.80;99.90
51982;DHT22;37998;53.416;6.730;2022-08-26T16:36:03;19.80;99.90
51982;DHT22;37998;53.416;6.730;2022-08-26T16:38:28;19.80;99.90
51982;DHT22;37998;53.416;6.730;2022-08-26T16:40:54;19.80;99.90
51982;DHT22;37998;53.416;6.730;2022-08-26T16:43:20;19.80;99.90
51982;DHT22;37998;53.416;6.730;2022-08-26T16:45:46;19.90;99.90
51982;DHT22;37998;53.416;6.730;2022-08-26T16:48:11;19.80;99.90
51982;DHT22;37998;53.416;6.730;2022-08-26T16:50:37;19.90;99.90
51982;DHT22;37998;53.416;6.730;2022-08-26T16:53:05;19.90;99.90
51982;DHT22;37998;53.416;6.730;2022-08-26T16:55:30;19.80;99.90